Time;durP1;ratioP1;P1;durP2;ratioP2;P2;SDS_P1;SDS_P2;PMS_P1;PMS_P2;Temp;Humidity;BMP_temperature;BMP_pressure;BME280_temperature;BME280_humidity;BME280_pressure;Samples;Min_cycle;Max_cycle;Signal;HPM_P1;HPM_P2
2021/06/19 00:01:03;;;;;;;;;;;19.10;79.10;;;;;;5025420;28;87143;-51
2021/06/19 00:03:29;;;;;;;;;;;19.10;79.10;;;;;;5023196;28;87961;-51
2021/06/19 00:05:54;;;;;;;;;;;19.10;79.20;;;;;;5024788;28;87148;-51
2021/06/19 00:08:23;;;;;;;;;;;19.10;79.20;;;;;;5025099;28;87621;-51
2021/06/19 00:10:48;;;;;;;;;;;19.10;79.20;;;;;;5022174;28;89545;-51
2021/06/19 00:13:14;;;;;;;;;;;19.10;79.10;;;;;;5019340;28;88555;-52
2021/06/19 00:15:39;;;;;;;;;;;19.10;79.20;;;;;;5018998;28;88057;-52
2021/06/19 00:18:05;;;;;;;;;;;19.10;79.20;;;;;;5020116;28;89404;-53
2021/06/19 00:20:30;;;;;;;;;;;19.10;79.10;;;;;;5024234;28;87208;-53
2021/06/19 00:22:56;;;;;;;;;;;19.10;79.20;;;;;;5020112;28;87484;-51
2021/06/19 00:25:23;;;;;;;;;;;19.00;79.20;;;;;;5020263;28;87258;-53
2021/06/19 00:27:48;;;;;;;;;;;19.00;79.10;;;;;;5018586;28;88789;-52
2021/06/19 00:30:15;;;;;;;;;;;19.00;79.10;;;;;;5018214;28;88290;-52
2021/06/19 00:32:41;;;;;;;;;;;19.00;79.10;;;;;;5021048;28;87941;-54
2021/06/19 00:35:07;;;;;;;;;;;19.10;79.20;;;;;;5019919;28;87973;-53
2021/06/19 00:37:33;;;;;;;;;;;19.00;79.10;;;;;;5018248;28;89987;-52
2021/06/19 00:39:59;;;;;;;;;;;19.00;79.20;;;;;;5021137;28;88615;-55
2021/06/19 00:42:24;;;;;;;;;;;19.00;79.10;;;;;;5021893;28;88870;-51
2021/06/19 00:44:50;;;;;;;;;;;19.00;79.20;;;;;;5018485;28;87507;-51
2021/06/19 00:47:16;;;;;;;;;;;19.00;79.20;;;;;;5017803;28;87554;-53
2021/06/19 00:49:42;;;;;;;;;;;19.00;79.20;;;;;;5018678;28;88716;-53
2021/06/19 00:52:07;;;;;;;;;;;19.00;79.20;;;;;;5021908;28;88008;-52
2021/06/19 00:54:36;;;;;;;;;;;18.90;79.10;;;;;;5019077;28;88650;-51
2021/06/19 00:57:01;;;;;;;;;;;18.90;79.20;;;;;;5019843;28;88965;-52
2021/06/19 00:59:27;;;;;;;;;;;18.90;79.10;;;;;;5020950;28;87185;-51
2021/06/19 01:01:54;;;;;;;;;;;18.90;79.20;;;;;;5021534;28;87195;-51
2021/06/19 01:04:19;;;;;;;;;;;18.90;79.20;;;;;;5023619;28;90385;-54
2021/06/19 01:06:45;;;;;;;;;;;18.90;79.20;;;;;;5022052;28;88700;-55
2021/06/19 01:09:10;;;;;;;;;;;18.90;79.20;;;;;;5021696;28;87775;-52
2021/06/19 01:11:36;;;;;;;;;;;18.90;79.20;;;;;;5022199;28;88734;-52
2021/06/19 01:14:02;;;;;;;;;;;18.90;79.20;;;;;;5020530;28;87893;-53
2021/06/19 01:16:28;;;;;;;;;;;18.90;79.20;;;;;;5018849;28;87698;-52
2021/06/19 01:18:54;;;;;;;;;;;18.90;79.20;;;;;;5017838;28;87350;-52
2021/06/19 01:21:21;;;;;;;;;;;18.90;79.20;;;;;;5017755;28;88815;-51
2021/06/19 01:23:47;;;;;;;;;;;18.90;79.30;;;;;;5020455;28;88202;-55
2021/06/19 01:26:13;;;;;;;;;;;18.90;79.20;;;;;;5023819;28;88663;-52
2021/06/19 01:28:40;;;;;;;;;;;18.90;79.30;;;;;;5020828;28;89635;-52
2021/06/19 01:31:05;;;;;;;;;;;18.90;79.30;;;;;;5020438;28;87174;-52
2021/06/19 01:33:31;;;;;;;;;;;18.80;79.20;;;;;;5019588;28;89078;-53
2021/06/19 01:35:56;;;;;;;;;;;18.80;79.30;;;;;;5019486;28;88127;-55
2021/06/19 01:38:22;;;;;;;;;;;18.80;79.30;;;;;;5019605;28;87284;-52
2021/06/19 01:40:47;;;;;;;;;;;18.80;79.30;;;;;;5021795;28;87170;-53
2021/06/19 01:43:13;;;;;;;;;;;18.80;79.30;;;;;;5020614;28;88038;-52
2021/06/19 01:45:38;;;;;;;;;;;18.80;79.20;;;;;;5020559;28;86504;-55
2021/06/19 01:48:05;;;;;;;;;;;18.80;79.30;;;;;;5021808;28;87164;-51
2021/06/19 01:50:32;;;;;;;;;;;18.80;79.30;;;;;;5018696;28;87173;-52
2021/06/19 01:52:59;;;;;;;;;;;18.80;79.30;;;;;;5017745;28;88080;-54
2021/06/19 01:55:24;;;;;;;;;;;18.80;79.30;;;;;;5016935;28;89663;-51
2021/06/19 01:57:54;;;;;;;;;;;18.80;79.40;;;;;;5017434;28;87158;-51
2021/06/19 02:00:24;;;;;;;;;;;18.80;79.40;;;;;;5018875;28;87349;-52
2021/06/19 02:02:50;;;;;;;;;;;18.70;79.30;;;;;;5019441;28;87844;-53
2021/06/19 02:05:17;;;;;;;;;;;18.70;79.30;;;;;;5020150;28;87154;-53
2021/06/19 02:07:46;;;;;;;;;;;18.70;79.40;;;;;;5020703;28;88890;-54
2021/06/19 02:10:12;;;;;;;;;;;18.70;79.30;;;;;;5019608;28;88281;-53
2021/06/19 02:12:38;;;;;;;;;;;18.70;79.40;;;;;;5017123;28;88370;-52
2021/06/19 02:15:04;;;;;;;;;;;18.70;79.30;;;;;;5020018;28;88491;-53
2021/06/19 02:17:30;;;;;;;;;;;18.70;79.20;;;;;;5018123;28;88776;-52
2021/06/19 02:19:55;;;;;;;;;;;18.70;79.30;;;;;;5016756;28;88486;-54
2021/06/19 02:22:21;;;;;;;;;;;18.70;79.40;;;;;;5017254;28;87838;-53
2021/06/19 02:24:46;;;;;;;;;;;18.70;79.40;;;;;;5017113;28;87114;-52
2021/06/19 02:27:13;;;;;;;;;;;18.70;79.40;;;;;;5017806;28;89120;-51
2021/06/19 02:29:38;;;;;;;;;;;18.70;79.40;;;;;;5019335;28;89045;-50
2021/06/19 02:32:05;;;;;;;;;;;18.70;79.40;;;;;;5016271;28;88822;-52
2021/06/19 02:34:30;;;;;;;;;;;18.60;79.30;;;;;;5017661;28;88118;-52
2021/06/19 02:36:56;;;;;;;;;;;18.70;79.40;;;;;;5015716;28;87638;-51
2021/06/19 02:39:21;;;;;;;;;;;18.60;79.40;;;;;;5017247;28;87148;-51
2021/06/19 02:41:47;;;;;;;;;;;18.70;79.50;;;;;;5016469;28;89158;-51
2021/06/19 02:44:12;;;;;;;;;;;18.60;79.40;;;;;;5017880;28;87181;-52
2021/06/19 02:46:38;;;;;;;;;;;18.60;79.50;;;;;;5018108;28;88149;-52
2021/06/19 02:49:03;;;;;;;;;;;18.60;79.50;;;;;;5018427;28;87274;-51
2021/06/19 02:51:29;;;;;;;;;;;18.60;79.40;;;;;;5021544;28;87161;-52
2021/06/19 02:53:54;;;;;;;;;;;18.60;79.50;;;;;;5018964;28;88184;-52
2021/06/19 02:56:20;;;;;;;;;;;18.60;79.50;;;;;;5020700;28;87198;-53
2021/06/19 02:58:45;;;;;;;;;;;18.60;79.40;;;;;;5019728;28;88070;-52
2021/06/19 03:01:11;;;;;;;;;;;18.60;79.60;;;;;;5018132;28;89702;-51
2021/06/19 03:03:36;;;;;;;;;;;18.60;79.50;;;;;;5015797;28;87224;-51
2021/06/19 03:06:02;;;;;;;;;;;18.60;79.40;;;;;;5015634;28;88973;-52
2021/06/19 03:08:28;;;;;;;;;;;18.60;79.50;;;;;;5016016;28;89512;-52
2021/06/19 03:10:54;;;;;;;;;;;18.60;79.50;;;;;;5016927;28;87270;-51
2021/06/19 03:13:19;;;;;;;;;;;18.60;79.60;;;;;;5019654;28;88549;-51
2021/06/19 03:15:45;;;;;;;;;;;18.60;79.60;;;;;;5018187;28;87203;-54
2021/06/19 03:18:10;;;;;;;;;;;18.60;79.50;;;;;;5018428;28;87162;-52
2021/06/19 03:20:36;;;;;;;;;;;18.50;79.50;;;;;;5018708;28;89141;-53
2021/06/19 03:23:03;;;;;;;;;;;18.50;79.40;;;;;;5020314;28;86502;-53
2021/06/19 03:25:32;;;;;;;;;;;18.50;79.60;;;;;;5016845;28;88345;-51
2021/06/19 03:27:58;;;;;;;;;;;18.50;79.50;;;;;;5019370;28;89736;-52
2021/06/19 03:30:24;;;;;;;;;;;18.50;79.70;;;;;;5018884;28;88105;-52
2021/06/19 03:32:50;;;;;;;;;;;18.50;79.50;;;;;;5019525;28;88408;-52
2021/06/19 03:35:16;;;;;;;;;;;18.50;79.50;;;;;;5022179;28;87416;-52
2021/06/19 03:37:42;;;;;;;;;;;18.50;79.50;;;;;;5018496;28;88986;-52
2021/06/19 03:40:09;;;;;;;;;;;18.50;79.60;;;;;;5019192;28;89407;-52
2021/06/19 03:42:34;;;;;;;;;;;18.50;79.50;;;;;;5018539;28;87146;-51
2021/06/19 03:45:00;;;;;;;;;;;18.50;79.50;;;;;;5018719;28;88766;-51
2021/06/19 03:47:26;;;;;;;;;;;18.50;79.60;;;;;;5017871;28;88246;-52
2021/06/19 03:49:51;;;;;;;;;;;18.40;79.50;;;;;;5020284;28;87154;-51
2021/06/19 03:52:17;;;;;;;;;;;18.40;79.60;;;;;;5019724;28;89395;-53
2021/06/19 03:54:42;;;;;;;;;;;18.40;79.60;;;;;;5017959;28;88103;-51
2021/06/19 03:57:08;;;;;;;;;;;18.40;79.60;;;;;;5022201;28;87224;-52
2021/06/19 03:59:34;;;;;;;;;;;18.40;79.60;;;;;;5020289;28;87817;-53
2021/06/19 04:02:00;;;;;;;;;;;18.40;79.70;;;;;;5020983;28;87250;-52
2021/06/19 04:04:26;;;;;;;;;;;18.40;79.60;;;;;;5021463;28;87707;-51
2021/06/19 04:06:51;;;;;;;;;;;18.40;79.60;;;;;;5022200;28;87709;-51
2021/06/19 04:09:17;;;;;;;;;;;18.40;79.70;;;;;;5023373;28;88058;-55
2021/06/19 04:11:42;;;;;;;;;;;18.40;79.50;;;;;;5023577;28;87839;-52
2021/06/19 04:14:08;;;;;;;;;;;18.40;79.60;;;;;;5022899;28;89044;-54
2021/06/19 04:16:34;;;;;;;;;;;18.40;79.60;;;;;;5021492;28;88671;-52
2021/06/19 04:18:59;;;;;;;;;;;18.40;79.70;;;;;;5020346;28;88861;-52
2021/06/19 04:21:25;;;;;;;;;;;18.40;79.60;;;;;;5018908;28;89032;-51
2021/06/19 04:23:50;;;;;;;;;;;18.40;79.70;;;;;;5018703;28;88104;-53
2021/06/19 04:26:16;;;;;;;;;;;18.40;79.60;;;;;;5018499;28;89458;-52
2021/06/19 04:28:42;;;;;;;;;;;18.40;79.70;;;;;;5018813;28;87335;-51
2021/06/19 04:31:07;;;;;;;;;;;18.40;79.70;;;;;;5018892;28;87437;-53
2021/06/19 04:33:33;;;;;;;;;;;18.40;79.70;;;;;;5019417;28;89311;-53
2021/06/19 04:35:58;;;;;;;;;;;18.40;79.70;;;;;;5021019;28;86416;-52
2021/06/19 04:38:24;;;;;;;;;;;18.30;79.60;;;;;;5023394;28;87152;-52
2021/06/19 04:43:24;;;;;;;;;;;18.30;79.70;;;;;;5017690;28;88070;-52
2021/06/19 04:45:50;;;;;;;;;;;18.30;79.60;;;;;;5018615;28;89555;-52
2021/06/19 04:48:15;;;;;;;;;;;18.30;79.60;;;;;;5018429;28;87203;-52
2021/06/19 04:50:41;;;;;;;;;;;18.30;79.70;;;;;;5019977;28;87595;-51
2021/06/19 04:53:07;;;;;;;;;;;18.30;79.60;;;;;;5020745;28;88234;-51
2021/06/19 04:55:33;;;;;;;;;;;18.30;79.60;;;;;;5020254;28;87150;-52
2021/06/19 04:58:02;;;;;;;;;;;18.30;79.70;;;;;;5019461;28;88455;-51
2021/06/19 05:00:28;;;;;;;;;;;18.30;79.60;;;;;;5024299;28;88915;-52
2021/06/19 05:02:54;;;;;;;;;;;18.30;79.60;;;;;;5021222;28;87149;-52
2021/06/19 05:05:21;;;;;;;;;;;18.30;79.70;;;;;;5021145;28;88305;-52
2021/06/19 05:07:46;;;;;;;;;;;18.30;79.70;;;;;;5020262;28;88211;-52
2021/06/19 05:10:12;;;;;;;;;;;18.30;79.70;;;;;;5022001;28;90159;-55
2021/06/19 05:12:47;;;;;;;;;;;18.30;79.70;;;;;;5021218;28;88154;-56
2021/06/19 05:15:15;;;;;;;;;;;18.30;79.70;;;;;;5019258;28;87836;-52
2021/06/19 05:17:41;;;;;;;;;;;18.30;79.80;;;;;;5020871;28;87226;-52
2021/06/19 05:20:07;;;;;;;;;;;18.30;80.40;;;;;;5019995;28;88558;-52
2021/06/19 05:22:33;;;;;;;;;;;18.30;79.80;;;;;;5023530;28;87165;-52
2021/06/19 05:24:58;;;;;;;;;;;18.30;79.80;;;;;;5021534;28;86876;-54
2021/06/19 05:27:24;;;;;;;;;;;18.30;79.70;;;;;;5021541;28;88679;-53
2021/06/19 05:29:49;;;;;;;;;;;18.30;79.80;;;;;;5018217;28;88862;-52
2021/06/19 05:32:15;;;;;;;;;;;18.30;79.80;;;;;;5016726;28;88192;-54
2021/06/19 05:34:41;;;;;;;;;;;18.30;79.90;;;;;;5018843;28;87205;-51
2021/06/19 05:37:07;;;;;;;;;;;18.30;79.90;;;;;;5018167;28;88908;-53
2021/06/19 05:39:33;;;;;;;;;;;18.30;79.80;;;;;;5017783;28;88589;-53
2021/06/19 05:41:58;;;;;;;;;;;18.30;79.80;;;;;;5019177;28;87133;-51
2021/06/19 05:44:24;;;;;;;;;;;18.30;79.80;;;;;;5023138;28;87978;-51
2021/06/19 05:46:50;;;;;;;;;;;18.30;79.80;;;;;;5021716;28;87133;-55
2021/06/19 05:49:15;;;;;;;;;;;18.30;79.80;;;;;;5020712;28;89064;-51
2021/06/19 05:51:41;;;;;;;;;;;18.30;79.80;;;;;;5016694;28;88076;-51
2021/06/19 05:54:06;;;;;;;;;;;18.30;79.80;;;;;;5018333;28;87195;-53
2021/06/19 05:56:32;;;;;;;;;;;18.30;79.80;;;;;;5017441;28;88975;-52
2021/06/19 05:58:57;;;;;;;;;;;18.30;79.90;;;;;;5018086;28;87190;-51
2021/06/19 06:01:23;;;;;;;;;;;18.30;79.80;;;;;;5017361;28;87187;-51
2021/06/19 06:03:49;;;;;;;;;;;18.30;79.80;;;;;;5017485;28;87460;-53
2021/06/19 06:06:15;;;;;;;;;;;18.30;79.90;;;;;;5021233;28;87577;-52
2021/06/19 06:08:41;;;;;;;;;;;18.30;79.90;;;;;;5018461;28;87297;-51
2021/06/19 06:11:06;;;;;;;;;;;18.30;79.90;;;;;;5017319;28;88089;-52
2021/06/19 06:13:32;;;;;;;;;;;18.30;80.00;;;;;;5018205;28;86481;-52
2021/06/19 06:15:57;;;;;;;;;;;18.30;80.00;;;;;;5018109;28;87269;-51
2021/06/19 06:18:23;;;;;;;;;;;18.30;80.00;;;;;;5018982;28;87754;-53
2021/06/19 06:20:48;;;;;;;;;;;18.30;80.00;;;;;;5019100;28;88113;-52
2021/06/19 06:23:14;;;;;;;;;;;18.30;80.00;;;;;;5019953;28;89385;-52
2021/06/19 06:25:40;;;;;;;;;;;18.20;80.50;;;;;;5019949;28;88292;-53
2021/06/19 06:28:06;;;;;;;;;;;18.30;80.00;;;;;;5022619;28;87537;-52
2021/06/19 06:30:32;;;;;;;;;;;18.30;80.00;;;;;;5020617;28;89730;-52
2021/06/19 06:32:57;;;;;;;;;;;18.30;80.00;;;;;;5018315;28;87829;-52
2021/06/19 06:35:23;;;;;;;;;;;18.30;80.00;;;;;;5016291;28;87591;-52
2021/06/19 06:37:48;;;;;;;;;;;18.30;80.00;;;;;;5017154;28;87901;-50
2021/06/19 06:40:14;;;;;;;;;;;18.30;79.90;;;;;;5016523;28;87143;-51
2021/06/19 06:42:41;;;;;;;;;;;18.30;79.90;;;;;;5016702;28;89085;-52
2021/06/19 06:45:10;;;;;;;;;;;18.30;80.00;;;;;;5017386;28;90663;-55
2021/06/19 06:47:37;;;;;;;;;;;18.30;80.00;;;;;;5020127;28;87185;-52
2021/06/19 06:50:03;;;;;;;;;;;18.30;80.50;;;;;;5018213;28;87915;-51
2021/06/19 06:52:28;;;;;;;;;;;18.30;80.00;;;;;;5020585;28;87174;-52
2021/06/19 06:54:54;;;;;;;;;;;18.30;80.00;;;;;;5020666;28;88691;-52
2021/06/19 06:57:19;;;;;;;;;;;18.30;80.00;;;;;;5020166;28;88135;-51
2021/06/19 06:59:45;;;;;;;;;;;18.40;79.90;;;;;;5019923;28;87164;-52
2021/06/19 07:02:11;;;;;;;;;;;18.40;79.90;;;;;;5020710;28;86399;-52
2021/06/19 07:04:37;;;;;;;;;;;18.40;79.80;;;;;;5018950;28;89577;-50
2021/06/19 07:07:03;;;;;;;;;;;18.40;79.80;;;;;;5020139;28;87129;-53
2021/06/19 07:09:28;;;;;;;;;;;18.40;79.80;;;;;;5021690;28;89871;-52
2021/06/19 07:11:54;;;;;;;;;;;18.40;79.80;;;;;;5019409;28;88114;-52
2021/06/19 07:14:19;;;;;;;;;;;18.40;79.80;;;;;;5016008;28;88862;-52
2021/06/19 07:16:45;;;;;;;;;;;18.40;79.90;;;;;;5016311;28;87988;-52
2021/06/19 07:19:10;;;;;;;;;;;18.40;79.90;;;;;;5017978;28;87165;-55
2021/06/19 07:21:36;;;;;;;;;;;18.50;79.90;;;;;;5018174;28;87559;-52
2021/06/19 07:24:02;;;;;;;;;;;18.40;79.90;;;;;;5021786;28;90008;-53
2021/06/19 07:26:27;;;;;;;;;;;18.40;80.00;;;;;;5024216;28;86427;-52
2021/06/19 07:28:53;;;;;;;;;;;18.40;79.90;;;;;;5021736;28;87822;-52
2021/06/19 07:31:18;;;;;;;;;;;18.50;80.00;;;;;;5021707;28;89263;-51
2021/06/19 07:33:44;;;;;;;;;;;18.40;79.90;;;;;;5019866;28;88207;-51
2021/06/19 07:36:10;;;;;;;;;;;18.40;79.90;;;;;;5021181;28;89677;-52
2021/06/19 07:38:35;;;;;;;;;;;18.40;80.00;;;;;;5020879;28;87178;-51
2021/06/19 07:41:01;;;;;;;;;;;18.50;80.10;;;;;;5020923;28;87239;-53
2021/06/19 07:43:26;;;;;;;;;;;18.50;80.20;;;;;;5021653;28;87131;-52
2021/06/19 07:45:52;;;;;;;;;;;18.50;80.10;;;;;;5022408;28;87263;-52
2021/06/19 07:48:18;;;;;;;;;;;18.50;80.10;;;;;;5021365;28;87655;-52
2021/06/19 07:50:44;;;;;;;;;;;18.50;80.00;;;;;;5020429;28;86906;-52
2021/06/19 07:53:10;;;;;;;;;;;18.50;80.10;;;;;;5024295;28;87116;-51
2021/06/19 07:55:36;;;;;;;;;;;18.50;79.90;;;;;;5021300;28;88410;-53
2021/06/19 07:58:01;;;;;;;;;;;18.50;80.00;;;;;;5020933;28;88088;-54
2021/06/19 08:00:29;;;;;;;;;;;18.60;80.10;;;;;;5022446;28;89984;-52
2021/06/19 08:02:55;;;;;;;;;;;18.60;80.00;;;;;;5019960;28;88690;-52
2021/06/19 08:05:21;;;;;;;;;;;18.60;80.00;;;;;;5021144;28;87182;-51
2021/06/19 08:07:46;;;;;;;;;;;18.60;80.00;;;;;;5022435;28;88031;-51
2021/06/19 08:10:12;;;;;;;;;;;18.60;80.10;;;;;;5022596;28;88530;-51
2021/06/19 08:12:38;;;;;;;;;;;18.50;80.10;;;;;;5020322;28;88189;-52
2021/06/19 08:15:05;;;;;;;;;;;18.50;80.00;;;;;;5021550;28;87672;-53
2021/06/19 08:17:31;;;;;;;;;;;18.60;80.10;;;;;;5022575;28;87204;-55
2021/06/19 08:19:56;;;;;;;;;;;18.60;80.30;;;;;;5021942;28;88694;-51
2021/06/19 08:22:22;;;;;;;;;;;18.60;80.20;;;;;;5017264;28;89271;-52
2021/06/19 08:24:47;;;;;;;;;;;18.60;80.50;;;;;;5019434;28;87141;-52
2021/06/19 08:27:13;;;;;;;;;;;18.60;80.50;;;;;;5020236;28;88984;-52
2021/06/19 08:29:39;;;;;;;;;;;18.60;80.50;;;;;;5019002;28;88076;-52
2021/06/19 08:32:07;;;;;;;;;;;18.70;80.60;;;;;;5018709;28;87243;-53
2021/06/19 08:34:33;;;;;;;;;;;18.70;80.50;;;;;;5022128;28;88960;-52
2021/06/19 08:36:59;;;;;;;;;;;18.70;80.50;;;;;;5019966;28;87141;-51
2021/06/19 08:39:24;;;;;;;;;;;18.70;80.50;;;;;;5020529;28;88473;-54
2021/06/19 08:41:53;;;;;;;;;;;18.80;80.70;;;;;;5019371;28;88200;-52
2021/06/19 08:44:21;;;;;;;;;;;18.70;80.80;;;;;;5022806;28;87233;-54
2021/06/19 08:46:47;;;;;;;;;;;18.70;80.60;;;;;;5020351;28;88717;-53
2021/06/19 08:49:13;;;;;;;;;;;18.80;80.70;;;;;;5020518;28;88217;-51
2021/06/19 08:51:39;;;;;;;;;;;18.80;80.70;;;;;;5022410;28;87162;-54
2021/06/19 08:54:04;;;;;;;;;;;18.70;80.80;;;;;;5022579;28;87128;-53
2021/06/19 08:56:30;;;;;;;;;;;18.70;80.90;;;;;;5024585;28;88561;-52
2021/06/19 08:58:55;;;;;;;;;;;18.80;80.80;;;;;;5022430;28;88466;-52
2021/06/19 09:01:21;;;;;;;;;;;18.80;80.80;;;;;;5018693;28;88014;-52
2021/06/19 09:03:46;;;;;;;;;;;18.80;80.90;;;;;;5018846;28;86443;-52
2021/06/19 09:06:16;;;;;;;;;;;18.80;80.90;;;;;;5019572;28;87408;-53
2021/06/19 09:08:57;;;;;;;;;;;18.80;80.90;;;;;;5021094;28;89314;-51
2021/06/19 09:11:36;;;;;;;;;;;18.80;81.10;;;;;;5021341;28;88085;-54
2021/06/19 09:14:06;;;;;;;;;;;18.80;81.10;;;;;;5018099;28;87800;-52
2021/06/19 09:16:32;;;;;;;;;;;18.80;81.00;;;;;;5018135;28;89625;-51
2021/06/19 09:18:58;;;;;;;;;;;18.80;81.10;;;;;;5021483;28;87147;-52
2021/06/19 09:21:28;;;;;;;;;;;18.80;81.00;;;;;;5018934;28;89611;-51
2021/06/19 09:23:54;;;;;;;;;;;18.80;81.00;;;;;;5021572;28;87227;-51
2021/06/19 09:26:24;;;;;;;;;;;18.80;81.10;;;;;;5021212;28;88715;-52
2021/06/19 09:29:00;;;;;;;;;;;18.80;81.00;;;;;;5017665;28;89207;-52
2021/06/19 09:31:48;;;;;;;;;;;18.80;81.00;;;;;;5017720;28;87150;-53
2021/06/19 09:34:15;;;;;;;;;;;18.80;81.10;;;;;;5018782;28;89105;-50
2021/06/19 09:36:42;;;;;;;;;;;18.90;81.20;;;;;;5019012;28;88446;-53
2021/06/19 09:39:09;;;;;;;;;;;18.90;81.20;;;;;;5021505;28;87166;-54
2021/06/19 09:41:38;;;;;;;;;;;18.90;81.30;;;;;;5024101;28;87146;-54
2021/06/19 09:44:04;;;;;;;;;;;18.90;81.30;;;;;;5017137;28;87243;-52
2021/06/19 09:46:30;;;;;;;;;;;19.00;81.40;;;;;;5016709;28;88690;-51
2021/06/19 09:49:07;;;;;;;;;;;19.00;81.40;;;;;;5016974;28;87603;-53
2021/06/19 09:51:33;;;;;;;;;;;19.00;81.50;;;;;;5018959;28;87997;-53
2021/06/19 09:54:03;;;;;;;;;;;19.00;81.50;;;;;;5017757;28;88351;-53
2021/06/19 09:56:28;;;;;;;;;;;19.00;81.60;;;;;;5019241;28;88325;-53
2021/06/19 09:58:57;;;;;;;;;;;19.00;81.70;;;;;;5020888;28;87153;-51
2021/06/19 10:01:32;;;;;;;;;;;19.00;81.80;;;;;;5017384;28;89255;-51
2021/06/19 10:03:58;;;;;;;;;;;19.00;81.90;;;;;;5021617;28;89721;-51
2021/06/19 10:06:25;;;;;;;;;;;19.00;81.60;;;;;;5020240;28;88031;-51
2021/06/19 10:08:51;;;;;;;;;;;19.10;81.60;;;;;;5019214;28;89803;-52
2021/06/19 10:11:18;;;;;;;;;;;19.10;81.80;;;;;;5020206;28;87217;-52
2021/06/19 10:13:44;;;;;;;;;;;19.10;81.80;;;;;;5018931;28;88530;-51
2021/06/19 10:16:13;;;;;;;;;;;19.10;81.80;;;;;;5019393;28;87509;-51
2021/06/19 10:18:40;;;;;;;;;;;19.10;81.90;;;;;;5018381;28;88110;-53
2021/06/19 10:21:06;;;;;;;;;;;19.10;81.80;;;;;;5018522;28;87828;-53
2021/06/19 10:23:32;;;;;;;;;;;19.20;81.80;;;;;;5016599;28;88835;-53
2021/06/19 10:25:57;;;;;;;;;;;19.20;81.70;;;;;;5019154;28;88076;-52
2021/06/19 10:28:23;;;;;;;;;;;19.20;81.90;;;;;;5017049;28;87629;-51
2021/06/19 10:30:49;;;;;;;;;;;19.20;82.00;;;;;;5017194;28;87214;-54
2021/06/19 10:33:36;;;;;;;;;;;19.20;82.00;;;;;;5018439;28;87189;-52
2021/06/19 10:36:04;;;;;;;;;;;19.30;82.20;;;;;;5017319;28;87132;-51
2021/06/19 10:38:30;;;;;;;;;;;19.30;81.70;;;;;;5016281;28;87196;-51
2021/06/19 10:40:57;;;;;;;;;;;19.30;82.20;;;;;;5016814;28;88782;-52
2021/06/19 10:43:23;;;;;;;;;;;19.30;82.30;;;;;;5019256;28;88809;-51
2021/06/19 10:45:49;;;;;;;;;;;19.30;82.20;;;;;;5019896;28;88205;-52
2021/06/19 10:48:16;;;;;;;;;;;19.30;82.00;;;;;;5015805;28;88202;-52
2021/06/19 10:50:43;;;;;;;;;;;19.30;82.10;;;;;;5015334;28;89035;-52
2021/06/19 10:53:08;;;;;;;;;;;19.30;82.10;;;;;;5017308;28;89747;-52
2021/06/19 10:55:35;;;;;;;;;;;19.30;82.10;;;;;;5016184;28;88304;-52
2021/06/19 10:58:04;;;;;;;;;;;19.30;82.10;;;;;;5015493;28;87155;-52
2021/06/19 11:00:32;;;;;;;;;;;19.30;82.00;;;;;;5018555;28;88047;-51
2021/06/19 11:02:58;;;;;;;;;;;19.40;81.90;;;;;;5016347;28;88081;-51
2021/06/19 11:05:44;;;;;;;;;;;19.40;82.10;;;;;;5015777;28;87237;-51
2021/06/19 11:08:14;;;;;;;;;;;19.40;82.00;;;;;;5011638;28;89716;-51
2021/06/19 11:10:49;;;;;;;;;;;19.40;81.90;;;;;;5016395;28;87134;-53
2021/06/19 11:13:27;;;;;;;;;;;19.40;82.00;;;;;;5017363;28;88798;-52
2021/06/19 11:15:53;;;;;;;;;;;19.40;82.20;;;;;;5014732;28;91189;-53
2021/06/19 11:18:37;;;;;;;;;;;19.30;81.90;;;;;;5016581;28;87134;-53
2021/06/19 11:21:09;;;;;;;;;;;19.30;82.00;;;;;;5019761;28;87353;-51
2021/06/19 11:23:53;;;;;;;;;;;19.30;82.10;;;;;;5018004;28;89620;-54
2021/06/19 11:26:38;;;;;;;;;;;19.30;82.00;;;;;;5017791;28;87670;-52
2021/06/19 11:29:22;;;;;;;;;;;19.30;82.10;;;;;;5017051;28;87379;-52
2021/06/19 11:31:48;;;;;;;;;;;19.30;82.20;;;;;;5022967;28;88588;-51
2021/06/19 11:34:34;;;;;;;;;;;19.30;82.40;;;;;;5020523;28;88017;-54
2021/06/19 11:36:59;;;;;;;;;;;19.30;82.20;;;;;;5014923;28;89607;-53
2021/06/19 11:39:32;;;;;;;;;;;19.30;82.40;;;;;;5016118;28;87180;-51
2021/06/19 11:41:58;;;;;;;;;;;19.20;82.30;;;;;;5018043;28;89128;-52
2021/06/19 11:44:31;;;;;;;;;;;19.30;82.40;;;;;;5017157;28;88248;-52
2021/06/19 11:46:57;;;;;;;;;;;19.20;82.40;;;;;;5018640;28;87112;-52
2021/06/19 11:49:23;;;;;;;;;;;19.30;82.60;;;;;;5019175;28;88728;-53
2021/06/19 11:51:49;;;;;;;;;;;19.20;83.10;;;;;;5019473;28;88357;-54
2021/06/19 11:54:15;;;;;;;;;;;19.30;82.70;;;;;;5021880;28;87641;-56
2021/06/19 11:56:41;;;;;;;;;;;19.20;82.50;;;;;;5017537;28;89369;-53
2021/06/19 11:59:06;;;;;;;;;;;19.20;82.50;;;;;;5015843;28;86437;-52
2021/06/19 12:01:33;;;;;;;;;;;19.20;82.50;;;;;;5016072;28;88162;-54
2021/06/19 12:04:01;;;;;;;;;;;19.20;82.70;;;;;;5014830;28;90098;-52
2021/06/19 12:06:37;;;;;;;;;;;19.30;82.60;;;;;;5019163;28;88091;-53
2021/06/19 12:09:03;;;;;;;;;;;19.20;82.60;;;;;;5018676;28;88968;-52
2021/06/19 12:11:29;;;;;;;;;;;19.20;82.50;;;;;;5019486;28;88278;-52
2021/06/19 12:13:55;;;;;;;;;;;19.30;82.50;;;;;;5018650;28;88638;-56
2021/06/19 12:16:27;;;;;;;;;;;19.20;82.40;;;;;;5021626;28;88423;-52
2021/06/19 12:19:00;;;;;;;;;;;19.30;82.40;;;;;;5019026;28;87136;-53
2021/06/19 12:21:30;;;;;;;;;;;19.20;82.40;;;;;;5022844;28;89261;-55
2021/06/19 12:23:56;;;;;;;;;;;19.30;82.40;;;;;;5018599;28;89643;-54
2021/06/19 12:26:22;;;;;;;;;;;19.30;82.40;;;;;;5019539;28;87126;-53
2021/06/19 12:28:48;;;;;;;;;;;19.20;82.30;;;;;;5020408;28;88638;-53
2021/06/19 12:31:15;;;;;;;;;;;19.20;82.40;;;;;;5019140;28;89318;-52
2021/06/19 12:33:42;;;;;;;;;;;19.30;82.40;;;;;;5019287;28;87155;-52
2021/06/19 12:36:09;;;;;;;;;;;19.30;83.00;;;;;;5018640;28;88632;-51
2021/06/19 12:38:35;;;;;;;;;;;19.30;82.40;;;;;;5021097;28;88187;-53
2021/06/19 12:41:00;;;;;;;;;;;19.30;82.30;;;;;;5019365;28;88834;-53
2021/06/19 12:43:26;;;;;;;;;;;19.30;82.30;;;;;;5019885;28;88512;-51
2021/06/19 12:45:54;;;;;;;;;;;19.20;82.30;;;;;;5021052;28;87189;-55
2021/06/19 12:48:19;;;;;;;;;;;19.30;82.40;;;;;;5020182;28;89475;-52
2021/06/19 12:50:45;;;;;;;;;;;19.30;82.40;;;;;;5018568;28;88841;-53
2021/06/19 12:53:12;;;;;;;;;;;19.30;82.30;;;;;;5020332;28;87166;-53
2021/06/19 12:55:38;;;;;;;;;;;19.30;82.30;;;;;;5018646;28;88176;-53
2021/06/19 12:58:03;;;;;;;;;;;19.30;82.20;;;;;;5022147;28;89156;-51
2021/06/19 13:00:36;;;;;;;;;;;19.30;82.20;;;;;;5020425;28;87125;-55
2021/06/19 13:03:02;;;;;;;;;;;19.40;82.20;;;;;;5018107;28;88190;-50
2021/06/19 13:05:27;;;;;;;;;;;19.40;82.10;;;;;;5019582;28;87164;-52
2021/06/19 13:08:08;;;;;;;;;;;19.40;82.00;;;;;;5019038;28;87468;-56
2021/06/19 13:10:34;;;;;;;;;;;19.50;82.10;;;;;;5018850;28;87820;-51
2021/06/19 13:12:59;;;;;;;;;;;19.50;82.20;;;;;;5020347;28;86475;-52
2021/06/19 13:15:26;;;;;;;;;;;19.50;82.00;;;;;;5021223;28;87232;-52
2021/06/19 13:17:52;;;;;;;;;;;19.50;82.00;;;;;;5020044;28;89637;-55
2021/06/19 13:20:26;;;;;;;;;;;19.50;82.10;;;;;;5022582;28;88092;-52
2021/06/19 13:23:17;;;;;;;;;;;19.50;82.00;;;;;;5019049;28;88848;-51
2021/06/19 13:25:55;;;;;;;;;;;19.50;82.00;;;;;;5010647;28;87157;-55
2021/06/19 13:28:23;;;;;;;;;;;19.50;82.00;;;;;;5020201;28;88399;-51
2021/06/19 13:31:09;;;;;;;;;;;19.60;82.40;;;;;;5019696;28;88713;-52
2021/06/19 13:33:44;;;;;;;;;;;19.60;81.60;;;;;;5020637;28;87153;-51
2021/06/19 13:36:21;;;;;;;;;;;19.70;81.70;;;;;;5018407;28;87777;-54
2021/06/19 13:38:48;;;;;;;;;;;19.80;81.50;;;;;;5021959;28;89045;-52
2021/06/19 13:41:23;;;;;;;;;;;19.80;81.40;;;;;;5021533;28;88555;-51
2021/06/19 13:43:48;;;;;;;;;;;19.80;81.30;;;;;;5019652;28;88895;-54
2021/06/19 13:46:14;;;;;;;;;;;19.90;81.20;;;;;;5017604;28;88104;-52
2021/06/19 13:48:40;;;;;;;;;;;19.90;81.10;;;;;;5019476;28;87897;-54
2021/06/19 13:51:05;;;;;;;;;;;19.90;81.10;;;;;;5019889;28;87892;-52
2021/06/19 13:53:31;;;;;;;;;;;20.00;81.10;;;;;;5021750;28;87951;-52
2021/06/19 13:55:57;;;;;;;;;;;20.00;81.00;;;;;;5018516;28;88341;-51
2021/06/19 13:58:27;;;;;;;;;;;20.00;81.00;;;;;;5019026;28;89565;-51
2021/06/19 14:00:53;;;;;;;;;;;20.10;80.90;;;;;;5017828;28;87162;-53
2021/06/19 14:03:18;;;;;;;;;;;20.10;80.90;;;;;;5019633;28;87594;-53
2021/06/19 14:05:44;;;;;;;;;;;20.10;80.80;;;;;;5022897;28;88233;-52
2021/06/19 14:08:09;;;;;;;;;;;20.10;81.00;;;;;;5021709;28;87471;-53
2021/06/19 14:10:35;;;;;;;;;;;20.10;80.90;;;;;;5017475;28;88948;-51
2021/06/19 14:13:00;;;;;;;;;;;20.10;81.00;;;;;;5017179;28;87205;-52
2021/06/19 14:15:26;;;;;;;;;;;20.10;81.00;;;;;;5018546;28;87268;-53
2021/06/19 14:17:53;;;;;;;;;;;20.10;81.00;;;;;;5018186;28;87739;-51